Time;durP1;ratioP1;P1;durP2;ratioP2;P2;SDS_P1;SDS_P2;PMS_P1;PMS_P2;Temp;Humidity;BMP_temperature;BMP_pressure;BME280_temperature;BME280_humidity;BME280_pressure;Samples;Min_cycle;Max_cycle;Signal;HPM_P1;HPM_P2
2022/07/22 00:00:16;;;;;;;6.45;5.93;;;;;;;;;;1655383;29;22468;-67
2022/07/22 00:01:07;;;;;;;9.00;5.80;;;;;;;;;;1659236;29;22002;-66
2022/07/22 00:02:00;;;;;;;7.28;5.90;;;;;;;;;;1662864;29;21603;-67
2022/07/22 00:02:51;;;;;;;6.90;6.00;;;;;;;;;;1661640;29;22516;-66
2022/07/22 00:03:43;;;;;;;8.52;6.22;;;;;;;;;;1662596;29;22066;-66
2022/07/22 00:04:35;;;;;;;6.05;5.55;;;;;;;;;;1662273;29;22671;-65
2022/07/22 00:05:27;;;;;;;5.97;5.57;;;;;;;;;;1663554;29;22415;-66
2022/07/22 00:06:18;;;;;;;6.75;5.68;;;;;;;;;;1662786;29;22239;-66
2022/07/22 00:07:11;;;;;;;6.20;5.70;;;;;;;;;;1663019;29;21634;-67
2022/07/22 00:08:02;;;;;;;6.75;6.15;;;;;;;;;;1662245;29;21680;-66
2022/07/22 00:08:56;;;;;;;6.72;6.13;;;;;;;;;;1662659;29;21664;-67
2022/07/22 00:09:48;;;;;;;6.90;6.40;;;;;;;;;;1662900;29;22597;-66
2022/07/22 00:10:41;;;;;;;6.22;5.82;;;;;;;;;;1661722;29;21743;-66
2022/07/22 00:11:32;;;;;;;6.05;5.65;;;;;;;;;;1661395;29;22427;-67
2022/07/22 00:12:23;;;;;;;8.63;6.03;;;;;;;;;;1663915;29;21955;-66
2022/07/22 00:13:15;;;;;;;6.88;6.22;;;;;;;;;;1661600;29;21755;-66
2022/07/22 00:14:07;;;;;;;5.30;4.90;;;;;;;;;;1662071;29;22808;-66
2022/07/22 00:14:59;;;;;;;6.18;5.78;;;;;;;;;;1662797;29;22096;-66
2022/07/22 00:15:51;;;;;;;6.25;5.65;;;;;;;;;;1663613;29;21733;-66
2022/07/22 00:16:42;;;;;;;5.60;5.20;;;;;;;;;;1663935;29;22542;-66
2022/07/22 00:17:36;;;;;;;5.70;5.30;;;;;;;;;;1662127;29;22012;-65
2022/07/22 00:18:28;;;;;;;6.75;6.15;;;;;;;;;;1663200;29;21665;-67
2022/07/22 00:19:19;;;;;;;6.35;5.72;;;;;;;;;;1662453;29;21704;-66
2022/07/22 00:20:12;;;;;;;6.40;5.78;;;;;;;;;;1662897;29;21717;-65
2022/07/22 00:21:04;;;;;;;6.18;5.68;;;;;;;;;;1663830;29;22014;-66
2022/07/22 00:21:56;;;;;;;5.68;5.28;;;;;;;;;;1663641;29;21875;-66
2022/07/22 00:22:47;;;;;;;6.10;5.53;;;;;;;;;;1661972;29;21935;-65
2022/07/22 00:23:40;;;;;;;9.98;5.60;;;;;;;;;;1657604;29;22020;-68
2022/07/22 00:24:32;;;;;;;7.10;5.78;;;;;;;;;;1657075;29;21867;-66
2022/07/22 00:25:25;;;;;;;6.18;5.70;;;;;;;;;;1660470;29;21589;-67
2022/07/22 00:26:16;;;;;;;5.90;5.40;;;;;;;;;;1662702;29;22664;-66
2022/07/22 00:27:08;;;;;;;5.88;5.38;;;;;;;;;;1662268;29;21791;-65
2022/07/22 00:27:59;;;;;;;5.75;5.32;;;;;;;;;;1661977;29;21611;-66
2022/07/22 00:28:52;;;;;;;6.65;5.28;;;;;;;;;;1662616;29;21636;-66
2022/07/22 00:29:43;;;;;;;6.05;5.55;;;;;;;;;;1662045;29;21685;-66
2022/07/22 00:30:35;;;;;;;6.03;5.63;;;;;;;;;;1661645;29;21630;-66
2022/07/22 00:31:26;;;;;;;5.32;5.03;;;;;;;;;;1656877;29;21987;-65
2022/07/22 00:32:19;;;;;;;6.13;5.22;;;;;;;;;;1654753;29;22837;-66
2022/07/22 00:33:10;;;;;;;5.55;5.15;;;;;;;;;;1659342;29;21663;-66
2022/07/22 00:34:03;;;;;;;6.72;5.28;;;;;;;;;;1662749;29;21725;-66
2022/07/22 00:34:54;;;;;;;5.40;4.90;;;;;;;;;;1662420;29;21768;-66
2022/07/22 00:35:46;;;;;;;6.00;5.18;;;;;;;;;;1661770;29;21704;-66
2022/07/22 00:36:38;;;;;;;5.55;5.15;;;;;;;;;;1662483;29;22550;-66
2022/07/22 00:37:30;;;;;;;5.03;4.55;;;;;;;;;;1662304;29;21605;-66
2022/07/22 00:38:21;;;;;;;5.80;5.30;;;;;;;;;;1661887;29;21638;-64
2022/07/22 00:39:15;;;;;;;5.45;5.05;;;;;;;;;;1663762;29;21636;-65
2022/07/22 00:40:09;;;;;;;5.30;4.90;;;;;;;;;;1662339;29;22047;-66
2022/07/22 00:41:02;;;;;;;5.43;5.03;;;;;;;;;;1662107;29;21684;-67
2022/07/22 00:41:53;;;;;;;5.55;5.05;;;;;;;;;;1662606;29;21658;-65
2022/07/22 00:42:45;;;;;;;5.43;5.03;;;;;;;;;;1661852;29;21700;-64
2022/07/22 00:43:51;;;;;;;5.68;5.20;;;;;;;;;;1661126;29;21962;-67
2022/07/22 00:44:43;;;;;;;5.25;4.88;;;;;;;;;;1651343;29;22008;-66
2022/07/22 00:45:34;;;;;;;6.40;5.80;;;;;;;;;;1649707;29;21821;-64
2022/07/22 00:46:27;;;;;;;5.50;5.10;;;;;;;;;;1657976;29;22626;-65
2022/07/22 00:47:18;;;;;;;5.57;5.10;;;;;;;;;;1662568;29;22443;-66
2022/07/22 00:48:11;;;;;;;5.38;4.93;;;;;;;;;;1662543;29;21868;-66
2022/07/22 00:49:03;;;;;;;5.20;4.80;;;;;;;;;;1661811;29;22355;-66
2022/07/22 00:49:56;;;;;;;4.80;4.50;;;;;;;;;;1659555;29;21621;-65
2022/07/22 00:50:47;;;;;;;5.47;4.88;;;;;;;;;;1655433;29;21891;-66
2022/07/22 00:51:40;;;;;;;6.65;5.57;;;;;;;;;;1654866;29;22111;-65
2022/07/22 00:52:32;;;;;;;5.90;5.30;;;;;;;;;;1659039;29;22566;-67
2022/07/22 00:53:23;;;;;;;5.55;5.15;;;;;;;;;;1662575;29;21650;-66
2022/07/22 00:54:15;;;;;;;5.05;4.65;;;;;;;;;;1661674;29;21752;-66
2022/07/22 00:55:09;;;;;;;5.60;5.20;;;;;;;;;;1662410;29;21623;-66
2022/07/22 00:56:04;;;;;;;5.32;4.85;;;;;;;;;;1662793;29;22247;-65
2022/07/22 00:56:55;;;;;;;5.18;4.78;;;;;;;;;;1662453;29;21611;-67
2022/07/22 00:57:47;;;;;;;5.72;4.95;;;;;;;;;;1662775;29;21804;-66
2022/07/22 00:58:39;;;;;;;5.13;4.72;;;;;;;;;;1662142;29;21777;-66
2022/07/22 00:59:31;;;;;;;4.85;4.55;;;;;;;;;;1662258;29;22805;-66
2022/07/22 01:00:23;;;;;;;4.85;4.55;;;;;;;;;;1663179;29;21729;-66
2022/07/22 01:01:16;;;;;;;6.22;5.40;;;;;;;;;;1662381;29;21633;-66
2022/07/22 01:02:07;;;;;;;4.93;4.63;;;;;;;;;;1660892;29;22907;-66
2022/07/22 01:02:59;;;;;;;5.50;4.95;;;;;;;;;;1659517;29;21718;-65
2022/07/22 01:03:51;;;;;;;5.75;4.30;;;;;;;;;;1662412;29;21675;-66
2022/07/22 01:04:44;;;;;;;7.55;5.28;;;;;;;;;;1662571;29;21982;-65
2022/07/22 01:05:35;;;;;;;5.25;4.72;;;;;;;;;;1661621;29;21658;-66
2022/07/22 01:06:27;;;;;;;5.03;4.72;;;;;;;;;;1663256;29;22494;-65
2022/07/22 01:07:18;;;;;;;5.63;5.22;;;;;;;;;;1655237;29;21717;-67
2022/07/22 01:08:11;;;;;;;5.00;4.60;;;;;;;;;;1655813;29;21691;-66
2022/07/22 01:09:03;;;;;;;5.50;5.10;;;;;;;;;;1660079;29;21582;-65
2022/07/22 01:09:55;;;;;;;7.07;4.65;;;;;;;;;;1662845;29;21646;-66
2022/07/22 01:10:48;;;;;;;5.32;4.90;;;;;;;;;;1661240;29;22889;-66
2022/07/22 01:11:41;;;;;;;5.30;4.88;;;;;;;;;;1662064;29;22632;-66
2022/07/22 01:12:32;;;;;;;5.57;5.07;;;;;;;;;;1661375;29;21646;-66
2022/07/22 01:13:24;;;;;;;5.10;4.65;;;;;;;;;;1663639;29;21945;-66
2022/07/22 01:14:16;;;;;;;5.90;5.40;;;;;;;;;;1661660;29;21792;-67
2022/07/22 01:15:09;;;;;;;5.53;5.13;;;;;;;;;;1662401;29;21775;-66
2022/07/22 01:16:01;;;;;;;4.97;4.68;;;;;;;;;;1662359;29;21629;-66
2022/07/22 01:16:53;;;;;;;4.60;4.20;;;;;;;;;;1659209;29;21656;-66
2022/07/22 01:17:44;;;;;;;4.90;4.60;;;;;;;;;;1662235;29;21932;-65
2022/07/22 01:18:37;;;;;;;5.10;4.70;;;;;;;;;;1661839;29;21632;-65
2022/07/22 01:19:29;;;;;;;4.65;4.35;;;;;;;;;;1662614;29;21805;-65
2022/07/22 01:20:22;;;;;;;5.43;4.18;;;;;;;;;;1665635;29;21782;-68
2022/07/22 01:21:16;;;;;;;5.22;4.93;;;;;;;;;;1664753;29;22491;-66
2022/07/22 01:22:09;;;;;;;4.75;4.38;;;;;;;;;;1665315;29;21771;-66
2022/07/22 01:23:01;;;;;;;4.97;4.57;;;;;;;;;;1650502;29;21681;-65
2022/07/22 01:23:53;;;;;;;4.63;4.22;;;;;;;;;;1649927;29;22591;-66
2022/07/22 01:24:44;;;;;;;5.13;4.72;;;;;;;;;;1654693;29;21752;-66
2022/07/22 01:25:36;;;;;;;5.68;4.72;;;;;;;;;;1657673;29;21695;-66
2022/07/22 01:26:28;;;;;;;4.18;3.88;;;;;;;;;;1661565;29;21773;-64
2022/07/22 01:27:20;;;;;;;5.13;4.63;;;;;;;;;;1661585;29;22094;-66
2022/07/22 01:28:11;;;;;;;4.60;4.30;;;;;;;;;;1661578;29;21674;-65
2022/07/22 01:29:04;;;;;;;5.25;4.85;;;;;;;;;;1661817;29;22525;-65
2022/07/22 01:29:55;;;;;;;4.63;4.30;;;;;;;;;;1662310;29;21987;-65
2022/07/22 01:30:49;;;;;;;4.57;4.25;;;;;;;;;;1662177;29;21787;-67
2022/07/22 01:31:40;;;;;;;5.55;4.28;;;;;;;;;;1656288;29;21761;-65
2022/07/22 01:32:33;;;;;;;4.80;4.50;;;;;;;;;;1655149;29;22535;-66
2022/07/22 01:33:24;;;;;;;4.75;4.45;;;;;;;;;;1660015;29;21660;-65
2022/07/22 01:34:17;;;;;;;5.25;4.70;;;;;;;;;;1661725;29;22470;-65
2022/07/22 01:35:08;;;;;;;6.93;5.03;;;;;;;;;;1662317;29;22043;-65
2022/07/22 01:36:02;;;;;;;4.45;4.15;;;;;;;;;;1662880;29;21665;-65
2022/07/22 01:36:53;;;;;;;4.53;4.13;;;;;;;;;;1661565;29;22548;-66
2022/07/22 01:37:46;;;;;;;4.57;4.18;;;;;;;;;;1664535;29;21642;-66
2022/07/22 01:38:37;;;;;;;4.88;4.47;;;;;;;;;;1661985;29;22059;-65
2022/07/22 01:39:29;;;;;;;4.35;4.05;;;;;;;;;;1662061;29;22321;-66
2022/07/22 01:40:20;;;;;;;7.25;4.63;;;;;;;;;;1663156;29;21654;-65
2022/07/22 01:41:13;;;;;;;4.70;4.30;;;;;;;;;;1661686;29;22385;-65
2022/07/22 01:42:05;;;;;;;6.35;4.43;;;;;;;;;;1661163;29;21650;-65
2022/07/22 01:42:57;;;;;;;4.88;4.28;;;;;;;;;;1662237;29;22057;-65
2022/07/22 01:43:48;;;;;;;4.55;4.25;;;;;;;;;;1662278;29;22487;-65
2022/07/22 01:44:41;;;;;;;5.68;5.07;;;;;;;;;;1663259;29;21594;-66
2022/07/22 01:45:32;;;;;;;4.95;4.55;;;;;;;;;;1660878;29;21772;-65
2022/07/22 01:46:24;;;;;;;6.35;4.78;;;;;;;;;;1661474;29;21584;-66
2022/07/22 01:47:15;;;;;;;4.50;4.20;;;;;;;;;;1662471;29;21676;-65
2022/07/22 01:48:08;;;;;;;6.72;4.38;;;;;;;;;;1661440;29;21644;-66
2022/07/22 01:48:59;;;;;;;4.55;4.15;;;;;;;;;;1662370;29;22133;-66
2022/07/22 01:49:51;;;;;;;6.18;4.43;;;;;;;;;;1663187;29;21969;-65
2022/07/22 01:50:43;;;;;;;4.30;4.00;;;;;;;;;;1663311;29;21652;-65
2022/07/22 01:51:38;;;;;;;4.20;3.90;;;;;;;;;;1662811;29;21594;-67
2022/07/22 01:52:29;;;;;;;4.85;4.30;;;;;;;;;;1656792;29;21666;-65
2022/07/22 01:53:21;;;;;;;9.32;4.28;;;;;;;;;;1664454;29;21638;-65
2022/07/22 01:54:12;;;;;;;4.28;3.97;;;;;;;;;;1662372;29;21663;-64
2022/07/22 01:55:07;;;;;;;4.45;4.15;;;;;;;;;;1663500;29;21658;-65
2022/07/22 01:55:58;;;;;;;4.60;4.30;;;;;;;;;;1661328;29;21694;-64
2022/07/22 01:56:50;;;;;;;4.50;4.20;;;;;;;;;;1662555;29;21638;-65
2022/07/22 01:57:42;;;;;;;4.75;4.35;;;;;;;;;;1662193;29;21609;-65
2022/07/22 01:58:34;;;;;;;4.70;3.63;;;;;;;;;;1661254;29;21743;-66
2022/07/22 01:59:25;;;;;;;4.72;4.32;;;;;;;;;;1662312;29;22342;-65
2022/07/22 02:00:18;;;;;;;4.18;3.88;;;;;;;;;;1662197;29;21612;-65
2022/07/22 02:01:09;;;;;;;6.38;4.40;;;;;;;;;;1661680;29;22514;-65
2022/07/22 02:02:02;;;;;;;4.40;4.10;;;;;;;;;;1659372;29;21786;-66
2022/07/22 02:02:53;;;;;;;4.95;4.40;;;;;;;;;;1662251;29;21706;-65
2022/07/22 02:03:45;;;;;;;4.47;4.18;;;;;;;;;;1663105;29;22166;-66
2022/07/22 02:04:36;;;;;;;3.95;3.75;;;;;;;;;;1660918;29;22431;-66
2022/07/22 02:05:29;;;;;;;4.28;3.97;;;;;;;;;;1661691;29;21600;-64
2022/07/22 02:06:21;;;;;;;4.53;4.22;;;;;;;;;;1661369;29;21654;-66
2022/07/22 02:07:14;;;;;;;4.60;4.22;;;;;;;;;;1662216;29;21690;-65
2022/07/22 02:08:09;;;;;;;10.32;4.38;;;;;;;;;;1661964;29;21625;-65
2022/07/22 02:09:01;;;;;;;4.70;4.30;;;;;;;;;;1661663;29;21635;-65
2022/07/22 02:09:53;;;;;;;4.47;4.07;;;;;;;;;;1662603;29;21971;-65
2022/07/22 02:10:45;;;;;;;4.50;4.10;;;;;;;;;;1661634;29;21812;-65
2022/07/22 02:11:37;;;;;;;4.68;4.15;;;;;;;;;;1661142;29;22397;-65
2022/07/22 02:12:29;;;;;;;5.00;4.10;;;;;;;;;;1662212;29;21666;-65
2022/07/22 02:13:21;;;;;;;4.18;3.85;;;;;;;;;;1662151;29;21874;-65
2022/07/22 02:14:13;;;;;;;4.93;4.32;;;;;;;;;;1661549;29;22047;-65
2022/07/22 02:15:06;;;;;;;4.72;4.32;;;;;;;;;;1663342;29;21693;-66
2022/07/22 02:15:58;;;;;;;5.88;4.90;;;;;;;;;;1661660;29;21965;-65
2022/07/22 02:16:49;;;;;;;5.93;4.18;;;;;;;;;;1661877;29;21935;-65
2022/07/22 02:17:42;;;;;;;4.22;3.92;;;;;;;;;;1663074;29;21606;-65
2022/07/22 02:18:33;;;;;;;4.05;3.85;;;;;;;;;;1662512;29;21625;-66
2022/07/22 02:19:25;;;;;;;4.40;4.10;;;;;;;;;;1662956;29;21655;-66
2022/07/22 02:20:16;;;;;;;4.43;4.13;;;;;;;;;;1661621;29;21818;-65
2022/07/22 02:21:09;;;;;;;4.07;3.78;;;;;;;;;;1662228;29;21693;-66
2022/07/22 02:22:00;;;;;;;4.47;4.18;;;;;;;;;;1661677;29;21735;-65
2022/07/22 02:22:53;;;;;;;3.83;3.53;;;;;;;;;;1662895;29;21893;-66
2022/07/22 02:23:45;;;;;;;5.40;4.47;;;;;;;;;;1662124;29;22351;-66
2022/07/22 02:24:37;;;;;;;4.45;4.05;;;;;;;;;;1656458;29;21714;-65
2022/07/22 02:25:28;;;;;;;4.50;4.20;;;;;;;;;;1656960;29;21988;-64
2022/07/22 02:26:20;;;;;;;4.07;3.78;;;;;;;;;;1661019;29;21988;-66
2022/07/22 02:27:12;;;;;;;4.40;4.10;;;;;;;;;;1662284;29;21609;-66
2022/07/22 02:28:04;;;;;;;4.22;3.92;;;;;;;;;;1661584;29;22176;-65
2022/07/22 02:28:56;;;;;;;4.00;3.70;;;;;;;;;;1663088;29;21796;-64
2022/07/22 02:29:48;;;;;;;4.90;4.03;;;;;;;;;;1662379;29;22255;-66
2022/07/22 02:30:39;;;;;;;4.25;3.95;;;;;;;;;;1662348;29;22338;-65
2022/07/22 02:31:32;;;;;;;5.32;4.03;;;;;;;;;;1661648;29;21610;-66
2022/07/22 02:32:23;;;;;;;4.40;3.90;;;;;;;;;;1661789;29;22489;-65
2022/07/22 02:33:15;;;;;;;4.15;3.85;;;;;;;;;;1662290;29;22414;-66
2022/07/22 02:34:06;;;;;;;4.22;3.92;;;;;;;;;;1662048;29;22516;-66
2022/07/22 02:34:59;;;;;;;4.82;4.25;;;;;;;;;;1662062;29;21676;-66
2022/07/22 02:35:50;;;;;;;4.57;4.28;;;;;;;;;;1662233;29;22571;-65
2022/07/22 02:36:42;;;;;;;4.85;4.03;;;;;;;;;;1661509;29;21658;-67
2022/07/22 02:37:33;;;;;;;4.35;3.97;;;;;;;;;;1661664;29;21643;-65
2022/07/22 02:38:27;;;;;;;4.38;4.07;;;;;;;;;;1661871;29;21779;-65
2022/07/22 02:39:18;;;;;;;4.18;3.88;;;;;;;;;;1660512;29;21822;-66
2022/07/22 02:40:11;;;;;;;4.63;4.20;;;;;;;;;;1661896;29;21691;-65
2022/07/22 02:41:03;;;;;;;4.88;4.40;;;;;;;;;;1662184;29;22305;-65
2022/07/22 02:41:55;;;;;;;4.57;3.95;;;;;;;;;;1661479;29;21586;-65
2022/07/22 02:42:46;;;;;;;5.22;3.70;;;;;;;;;;1662063;29;22609;-66
2022/07/22 02:43:38;;;;;;;6.72;4.07;;;;;;;;;;1661474;29;21633;-66
2022/07/22 02:44:30;;;;;;;4.40;4.10;;;;;;;;;;1661949;29;22261;-65
2022/07/22 02:45:22;;;;;;;5.07;3.90;;;;;;;;;;1661902;29;21761;-65
2022/07/22 02:46:13;;;;;;;4.38;4.10;;;;;;;;;;1654299;29;21987;-65
2022/07/22 02:47:06;;;;;;;3.97;3.67;;;;;;;;;;1656160;29;21692;-66
2022/07/22 02:47:57;;;;;;;4.40;4.00;;;;;;;;;;1659449;29;22060;-66
2022/07/22 02:48:49;;;;;;;6.43;4.30;;;;;;;;;;1654502;29;22041;-65
2022/07/22 02:49:41;;;;;;;4.35;4.05;;;;;;;;;;1654871;29;21633;-65
2022/07/22 02:50:33;;;;;;;4.10;3.55;;;;;;;;;;1661578;29;21604;-65
2022/07/22 02:51:24;;;;;;;11.57;4.30;;;;;;;;;;1661530;29;21631;-65
2022/07/22 02:52:17;;;;;;;11.55;4.20;;;;;;;;;;1663389;29;22354;-65
2022/07/22 02:53:08;;;;;;;13.63;3.95;;;;;;;;;;1662813;29;22478;-65
2022/07/22 02:54:01;;;;;;;5.13;4.10;;;;;;;;;;1663310;29;21640;-65
2022/07/22 02:54:53;;;;;;;14.57;4.63;;;;;;;;;;1663303;29;21720;-65
2022/07/22 02:55:45;;;;;;;6.13;4.47;;;;;;;;;;1662049;29;21972;-66
2022/07/22 02:56:36;;;;;;;4.28;3.97;;;;;;;;;;1662764;29;21750;-65
2022/07/22 02:57:28;;;;;;;4.50;4.20;;;;;;;;;;1663014;29;21724;-65
2022/07/22 02:58:20;;;;;;;5.32;4.15;;;;;;;;;;1662337;29;22497;-65
2022/07/22 02:59:12;;;;;;;4.22;3.92;;;;;;;;;;1655590;29;22028;-65
2022/07/22 03:00:05;;;;;;;4.25;3.95;;;;;;;;;;1656220;29;22609;-66
2022/07/22 03:00:57;;;;;;;4.25;4.05;;;;;;;;;;1660524;29;21735;-65
2022/07/22 03:01:48;;;;;;;6.75;4.10;;;;;;;;;;1664011;29;21984;-65
2022/07/22 03:02:41;;;;;;;6.20;3.75;;;;;;;;;;1662598;29;21953;-66
2022/07/22 03:03:32;;;;;;;9.00;3.83;;;;;;;;;;1662272;29;21713;-65
2022/07/22 03:04:25;;;;;;;5.10;4.50;;;;;;;;;;1663096;29;21648;-66
2022/07/22 03:05:16;;;;;;;4.85;4.30;;;;;;;;;;1664125;29;21661;-65
2022/07/22 03:06:08;;;;;;;5.40;4.72;;;;;;;;;;1661930;29;21658;-66
2022/07/22 03:06:59;;;;;;;4.93;4.15;;;;;;;;;;1663177;29;21769;-65
2022/07/22 03:07:52;;;;;;;4.75;4.35;;;;;;;;;;1663166;29;22107;-65
2022/07/22 03:08:43;;;;;;;4.68;4.28;;;;;;;;;;1662641;29;22115;-65
2022/07/22 03:09:37;;;;;;;4.20;3.90;;;;;;;;;;1662407;29;21634;-66
2022/07/22 03:10:28;;;;;;;6.93;4.60;;;;;;;;;;1656905;29;22187;-65
2022/07/22 03:11:20;;;;;;;4.25;3.85;;;;;;;;;;1660945;29;22871;-65
2022/07/22 03:12:11;;;;;;;4.38;4.07;;;;;;;;;;1662928;29;22515;-65
2022/07/22 03:13:04;;;;;;;3.85;3.55;;;;;;;;;;1663110;29;21621;-65
2022/07/22 03:13:55;;;;;;;4.57;4.10;;;;;;;;;;1663376;29;22489;-65
2022/07/22 03:14:47;;;;;;;4.65;4.35;;;;;;;;;;1662850;29;21671;-65
2022/07/22 03:15:38;;;;;;;4.70;4.30;;;;;;;;;;1664163;29;21644;-65
2022/07/22 03:16:30;;;;;;;4.60;4.20;;;;;;;;;;1663666;29;21667;-65
2022/07/22 03:17:22;;;;;;;4.90;4.40;;;;;;;;;;1662718;29;21917;-66
2022/07/22 03:18:14;;;;;;;4.55;4.15;;;;;;;;;;1662791;29;22411;-65
2022/07/22 03:19:06;;;;;;;4.93;4.10;;;;;;;;;;1664166;29;22063;-66
2022/07/22 03:19:59;;;;;;;4.45;4.15;;;;;;;;;;1662609;29;21658;-67
2022/07/22 03:20:50;;;;;;;5.25;4.00;;;;;;;;;;1662985;29;21781;-65
2022/07/22 03:21:42;;;;;;;4.82;3.92;;;;;;;;;;1662915;29;22642;-66
2022/07/22 03:22:34;;;;;;;4.60;4.20;;;;;;;;;;1662119;29;21925;-64
2022/07/22 03:23:26;;;;;;;4.35;3.95;;;;;;;;;;1663186;29;21658;-65
2022/07/22 03:24:17;;;;;;;4.40;4.00;;;;;;;;;;1664301;29;22357;-65
2022/07/22 03:25:11;;;;;;;7.28;3.85;;;;;;;;;;1663258;29;21850;-66
2022/07/22 03:26:03;;;;;;;4.38;4.03;;;;;;;;;;1662804;29;22604;-67
2022/07/22 03:26:55;;;;;;;4.22;3.92;;;;;;;;;;1663868;29;22335;-66
2022/07/22 03:27:46;;;;;;;6.22;4.35;;;;;;;;;;1662991;29;22893;-66
2022/07/22 03:28:38;;;;;;;6.05;4.70;;;;;;;;;;1661965;29;22066;-64
2022/07/22 03:29:29;;;;;;;7.25;4.30;;;;;;;;;;1663603;29;22171;-67
2022/07/22 03:30:21;;;;;;;4.70;4.25;;;;;;;;;;1663428;29;21963;-66
2022/07/22 03:31:13;;;;;;;4.63;4.22;;;;;;;;;;1663772;29;21574;-66
2022/07/22 03:32:05;;;;;;;8.30;4.70;;;;;;;;;;1662850;29;21794;-65
2022/07/22 03:32:57;;;;;;;7.90;5.07;;;;;;;;;;1662833;29;21715;-65
2022/07/22 03:33:49;;;;;;;7.30;4.30;;;;;;;;;;1663570;29;21892;-66
2022/07/22 03:34:40;;;;;;;5.18;4.68;;;;;;;;;;1660467;29;22591;-65
2022/07/22 03:35:32;;;;;;;4.90;4.50;;;;;;;;;;1661587;29;21969;-65
2022/07/22 03:36:25;;;;;;;5.05;4.60;;;;;;;;;;1662900;29;22030;-65
2022/07/22 03:37:16;;;;;;;9.05;4.25;;;;;;;;;;1665206;29;22649;-66
2022/07/22 03:38:08;;;;;;;5.18;4.07;;;;;;;;;;1662920;29;22526;-65
2022/07/22 03:38:59;;;;;;;6.03;4.22;;;;;;;;;;1662107;29;21615;-65
2022/07/22 03:39:51;;;;;;;8.65;3.90;;;;;;;;;;1663610;29;21796;-65
2022/07/22 03:40:44;;;;;;;6.45;4.38;;;;;;;;;;1664226;29;21685;-65
2022/07/22 03:41:36;;;;;;;4.90;4.18;;;;;;;;;;1662331;29;21872;-65
2022/07/22 03:42:28;;;;;;;5.88;4.60;;;;;;;;;;1662667;29;22072;-65
2022/07/22 03:43:20;;;;;;;4.70;4.32;;;;;;;;;;1662893;29;21599;-65
2022/07/22 03:44:11;;;;;;;4.38;3.97;;;;;;;;;;1662528;29;21598;-65
2022/07/22 03:45:04;;;;;;;4.32;4.03;;;;;;;;;;1662896;29;21615;-65
2022/07/22 03:45:55;;;;;;;9.18;4.85;;;;;;;;;;1655712;29;22068;-66
2022/07/22 03:46:48;;;;;;;4.78;4.38;;;;;;;;;;1649040;29;21631;-65
2022/07/22 03:47:40;;;;;;;13.70;4.63;;;;;;;;;;1653091;29;21653;-66
2022/07/22 03:48:32;;;;;;;5.60;4.07;;;;;;;;;;1661529;29;21963;-65
2022/07/22 03:49:23;;;;;;;5.00;4.43;;;;;;;;;;1662351;29;21700;-66
2022/07/22 03:50:15;;;;;;;5.03;4.38;;;;;;;;;;1662886;29;22270;-66
2022/07/22 03:51:07;;;;;;;7.45;4.35;;;;;;;;;;1663257;29;21590;-66
2022/07/22 03:51:59;;;;;;;4.82;4.28;;;;;;;;;;1662190;29;21847;-66
2022/07/22 03:52:50;;;;;;;4.70;4.30;;;;;;;;;;1662518;29;21731;-65
2022/07/22 03:53:43;;;;;;;4.55;4.15;;;;;;;;;;1656586;29;21761;-66
2022/07/22 03:54:34;;;;;;;6.38;4.22;;;;;;;;;;1661970;29;21616;-66
2022/07/22 03:55:26;;;;;;;5.03;4.53;;;;;;;;;;1662468;29;21745;-67
2022/07/22 03:56:19;;;;;;;4.55;4.15;;;;;;;;;;1662501;29;22407;-65
2022/07/22 03:57:12;;;;;;;8.50;4.75;;;;;;;;;;1662875;29;22783;-66
2022/07/22 03:58:03;;;;;;;4.65;4.20;;;;;;;;;;1662318;29;21617;-65
2022/07/22 03:58:55;;;;;;;9.93;4.10;;;;;;;;;;1664966;29;21669;-65
2022/07/22 03:59:46;;;;;;;7.35;4.38;;;;;;;;;;1662728;29;22033;-65
2022/07/22 04:00:39;;;;;;;4.88;4.38;;;;;;;;;;1662802;29;21615;-66
2022/07/22 04:01:30;;;;;;;14.05;4.78;;;;;;;;;;1662474;29;22654;-66
2022/07/22 04:02:22;;;;;;;5.70;4.30;;;;;;;;;;1662934;29;22461;-65
2022/07/22 04:03:14;;;;;;;4.80;4.40;;;;;;;;;;1662318;29;22054;-66
2022/07/22 04:04:06;;;;;;;6.65;4.45;;;;;;;;;;1663088;29;21719;-66
2022/07/22 04:04:57;;;;;;;4.80;4.15;;;;;;;;;;1662369;29;22611;-65
2022/07/22 04:05:49;;;;;;;4.40;4.00;;;;;;;;;;1662081;29;21672;-65
2022/07/22 04:06:41;;;;;;;4.15;3.85;;;;;;;;;;1662559;29;22159;-66
2022/07/22 04:07:33;;;;;;;7.05;4.25;;;;;;;;;;1663455;29;21886;-65
2022/07/22 04:08:24;;;;;;;4.68;4.22;;;;;;;;;;1663548;29;21604;-65
2022/07/22 04:09:17;;;;;;;3.80;3.50;;;;;;;;;;1662152;29;21740;-66
2022/07/22 04:10:09;;;;;;;4.57;4.18;;;;;;;;;;1662703;29;21685;-65
2022/07/22 04:11:01;;;;;;;5.35;4.85;;;;;;;;;;1662192;29;21672;-65
2022/07/22 04:11:54;;;;;;;4.35;4.05;;;;;;;;;;1662426;29;21625;-66
2022/07/22 04:12:46;;;;;;;4.72;4.22;;;;;;;;;;1662598;29;22172;-65
2022/07/22 04:13:37;;;;;;;4.22;3.83;;;;;;;;;;1662369;29;21622;-66
2022/07/22 04:14:30;;;;;;;5.72;4.40;;;;;;;;;;1662883;29;21672;-65
2022/07/22 04:15:21;;;;;;;6.03;4.75;;;;;;;;;;1662938;29;21642;-65
2022/07/22 04:16:14;;;;;;;4.60;4.18;;;;;;;;;;1662259;29;21620;-66
2022/07/22 04:17:05;;;;;;;5.07;3.92;;;;;;;;;;1663799;29;21724;-67
2022/07/22 04:17:58;;;;;;;4.55;4.15;;;;;;;;;;1663781;29;21903;-65
2022/07/22 04:18:49;;;;;;;4.07;3.78;;;;;;;;;;1662745;29;22071;-65
2022/07/22 04:19:41;;;;;;;3.55;3.35;;;;;;;;;;1662144;29;22405;-66
2022/07/22 04:20:32;;;;;;;4.35;3.95;;;;;;;;;;1661681;29;21663;-66
2022/07/22 04:21:24;;;;;;;5.40;4.32;;;;;;;;;;1662623;29;21623;-65
2022/07/22 04:22:15;;;;;;;4.47;4.05;;;;;;;;;;1662028;29;21849;-66
2022/07/22 04:23:08;;;;;;;4.43;4.13;;;;;;;;;;1662464;29;22648;-65
2022/07/22 04:23:59;;;;;;;4.20;3.80;;;;;;;;;;1662646;29;21908;-65
2022/07/22 04:24:51;;;;;;;4.32;3.90;;;;;;;;;;1662615;29;21807;-65
2022/07/22 04:25:42;;;;;;;4.20;3.80;;;;;;;;;;1661795;29;21610;-65
2022/07/22 04:26:36;;;;;;;4.47;4.07;;;;;;;;;;1662115;29;21595;-66
2022/07/22 04:27:28;;;;;;;3.83;3.45;;;;;;;;;;1662723;29;21765;-66
2022/07/22 04:28:21;;;;;;;4.72;3.80;;;;;;;;;;1662286;29;21740;-65
2022/07/22 04:29:12;;;;;;;3.85;3.55;;;;;;;;;;1662475;29;22666;-65
2022/07/22 04:30:06;;;;;;;4.45;4.15;;;;;;;;;;1662937;29;21649;-65
2022/07/22 04:30:57;;;;;;;3.90;3.60;;;;;;;;;;1662288;29;22487;-64
2022/07/22 04:31:49;;;;;;;4.38;4.07;;;;;;;;;;1663917;29;21666;-64
2022/07/22 04:32:40;;;;;;;4.30;4.00;;;;;;;;;;1665433;29;21701;-66
2022/07/22 04:33:33;;;;;;;4.35;4.05;;;;;;;;;;1663193;29;22730;-65
2022/07/22 04:34:24;;;;;;;4.28;3.97;;;;;;;;;;1664820;29;21585;-66
2022/07/22 04:35:16;;;;;;;4.70;3.92;;;;;;;;;;1662638;29;22467;-65
2022/07/22 04:36:08;;;;;;;4.32;3.88;;;;;;;;;;1660280;29;22179;-65
2022/07/22 04:37:00;;;;;;;4.10;3.80;;;;;;;;;;1662664;29;21620;-66
2022/07/22 04:37:51;;;;;;;3.70;3.50;;;;;;;;;;1655665;29;22442;-66
2022/07/22 04:38:43;;;;;;;4.20;3.80;;;;;;;;;;1655036;29;21742;-66
2022/07/22 04:39:34;;;;;;;4.25;3.85;;;;;;;;;;1659558;29;21632;-65
2022/07/22 04:40:27;;;;;;;3.50;3.28;;;;;;;;;;1656587;29;21618;-65
2022/07/22 04:41:18;;;;;;;4.40;4.00;;;;;;;;;;1656475;29;21662;-65
2022/07/22 04:42:10;;;;;;;3.97;3.67;;;;;;;;;;1660167;29;21690;-64
2022/07/22 04:43:03;;;;;;;4.38;3.90;;;;;;;;;;1662589;29;21729;-66
2022/07/22 04:43:55;;;;;;;4.22;3.92;;;;;;;;;;1663389;29;22098;-65
2022/07/22 04:44:47;;;;;;;4.22;3.88;;;;;;;;;;1662637;29;21675;-66
2022/07/22 04:45:39;;;;;;;3.70;3.33;;;;;;;;;;1663127;29;21844;-65
2022/07/22 04:46:30;;;;;;;4.20;3.88;;;;;;;;;;1661421;29;21613;-65
2022/07/22 04:47:22;;;;;;;3.60;3.30;;;;;;;;;;1664048;29;21615;-65
2022/07/22 04:48:14;;;;;;;4.93;3.65;;;;;;;;;;1662535;29;21774;-66
2022/07/22 04:49:06;;;;;;;4.25;3.95;;;;;;;;;;1662683;29;21609;-66
2022/07/22 04:49:57;;;;;;;3.92;3.63;;;;;;;;;;1661890;29;21663;-65
2022/07/22 04:50:50;;;;;;;4.32;3.88;;;;;;;;;;1663835;29;21795;-65
2022/07/22 04:51:41;;;;;;;4.20;3.90;;;;;;;;;;1662350;29;21612;-66
2022/07/22 04:52:33;;;;;;;3.80;3.60;;;;;;;;;;1661254;29;21636;-65
2022/07/22 04:53:24;;;;;;;4.10;3.80;;;;;;;;;;1663622;29;22503;-66
2022/07/22 04:54:16;;;;;;;4.20;3.70;;;;;;;;;;1655566;29;22480;-65
2022/07/22 04:55:08;;;;;;;4.13;3.83;;;;;;;;;;1657755;29;21658;-65
2022/07/22 04:56:00;;;;;;;3.90;3.60;;;;;;;;;;1659265;29;21627;-65
2022/07/22 04:56:51;;;;;;;3.95;3.67;;;;;;;;;;1661508;29;22968;-64
2022/07/22 04:57:44;;;;;;;4.15;3.72;;;;;;;;;;1663604;29;22037;-65
2022/07/22 04:58:36;;;;;;;3.92;3.63;;;;;;;;;;1664302;29;21784;-65
2022/07/22 04:59:28;;;;;;;4.15;3.78;;;;;;;;;;1663740;29;21585;-65
2022/07/22 05:00:20;;;;;;;4.18;3.88;;;;;;;;;;1662457;29;21985;-65
2022/07/22 05:01:12;;;;;;;4.75;3.92;;;;;;;;;;1663050;29;22481;-65
2022/07/22 05:02:03;;;;;;;10.10;3.80;;;;;;;;;;1663660;29;21655;-65
2022/07/22 05:02:56;;;;;;;4.53;4.18;;;;;;;;;;1662346;29;21687;-65
2022/07/22 05:03:47;;;;;;;4.18;3.83;;;;;;;;;;1662251;29;21959;-65
2022/07/22 05:04:39;;;;;;;4.00;3.70;;;;;;;;;;1662162;29;21600;-65
2022/07/22 05:05:30;;;;;;;4.10;3.80;;;;;;;;;;1662721;29;21688;-65
2022/07/22 05:06:23;;;;;;;3.65;3.35;;;;;;;;;;1661632;29;21847;-65
2022/07/22 05:07:14;;;;;;;4.38;4.07;;;;;;;;;;1662458;29;21623;-65
2022/07/22 05:08:06;;;;;;;3.42;3.22;;;;;;;;;;1662182;29;21607;-66
2022/07/22 05:08:57;;;;;;;4.18;3.83;;;;;;;;;;1662227;29;22508;-66
2022/07/22 05:09:50;;;;;;;4.55;4.15;;;;;;;;;;1662787;29;21754;-66
2022/07/22 05:10:41;;;;;;;4.25;3.85;;;;;;;;;;1663159;29;21922;-67
2022/07/22 05:11:33;;;;;;;3.97;3.63;;;;;;;;;;1661686;29;21815;-66